sensor_id;sensor_type;location;lat;lon;timestamp;temperature;humidity
79020;DHT22;68422;44.714;37.756;2023-03-14T00:00:40;23.39;39.03
79020;DHT22;68422;44.714;37.756;2023-03-14T00:01:44;23.41;39.90
79020;DHT22;68422;44.714;37.756;2023-03-14T00:02:45;23.43;39.00
79020;DHT22;68422;44.714;37.756;2023-03-14T00:03:47;23.45;39.13
79020;DHT22;68422;44.714;37.756;2023-03-14T00:04:49;23.43;39.60
79020;DHT22;68422;44.714;37.756;2023-03-14T00:05:50;23.46;38.76
79020;DHT22;68422;44.714;37.756;2023-03-14T00:06:51;23.49;38.70
79020;DHT22;68422;44.714;37.756;2023-03-14T00:07:52;23.45;38.84
79020;DHT22;68422;44.714;37.756;2023-03-14T00:08:53;23.43;39.31
79020;DHT22;68422;44.714;37.756;2023-03-14T00:09:55;23.41;39.03
79020;DHT22;68422;44.714;37.756;2023-03-14T00:10:56;23.32;38.99
79020;DHT22;68422;44.714;37.756;2023-03-14T00:11:59;23.28;39.86
79020;DHT22;68422;44.714;37.756;2023-03-14T00:13:00;23.26;39.94
79020;DHT22;68422;44.714;37.756;2023-03-14T00:14:01;23.29;38.95
79020;DHT22;68422;44.714;37.756;2023-03-14T00:15:04;23.33;39.49
79020;DHT22;68422;44.714;37.756;2023-03-14T00:16:08;23.36;39.25
79020;DHT22;68422;44.714;37.756;2023-03-14T00:17:10;23.35;38.93
79020;DHT22;68422;44.714;37.756;2023-03-14T00:18:12;23.36;38.75
79020;DHT22;68422;44.714;37.756;2023-03-14T00:19:13;23.32;38.65
79020;DHT22;68422;44.714;37.756;2023-03-14T00:20:15;23.30;38.98
79020;DHT22;68422;44.714;37.756;2023-03-14T00:21:16;23.23;39.47
79020;DHT22;68422;44.714;37.756;2023-03-14T00:22:18;23.19;39.07
79020;DHT22;68422;44.714;37.756;2023-03-14T00:23:19;23.16;39.17
79020;DHT22;68422;44.714;37.756;2023-03-14T00:24:20;23.20;39.37
79020;DHT22;68422;44.714;37.756;2023-03-14T00:25:23;23.18;39.98
79020;DHT22;68422;44.714;37.756;2023-03-14T00:26:25;23.18;39.51
79020;DHT22;68422;44.714;37.756;2023-03-14T00:27:26;23.25;38.89
79020;DHT22;68422;44.714;37.756;2023-03-14T00:28:28;23.26;39.00
79020;DHT22;68422;44.714;37.756;2023-03-14T00:29:29;23.28;39.33
79020;DHT22;68422;44.714;37.756;2023-03-14T00:30:31;23.28;39.10
79020;DHT22;68422;44.714;37.756;2023-03-14T00:31:32;23.28;39.27
79020;DHT22;68422;44.714;37.756;2023-03-14T00:32:33;23.29;39.17
79020;DHT22;68422;44.714;37.756;2023-03-14T00:33:36;23.30;38.77
79020;DHT22;68422;44.714;37.756;2023-03-14T00:34:38;23.28;39.01
79020;DHT22;68422;44.714;37.756;2023-03-14T00:35:39;23.28;39.27
79020;DHT22;68422;44.714;37.756;2023-03-14T00:36:40;23.23;39.81
79020;DHT22;68422;44.714;37.756;2023-03-14T00:37:41;23.23;40.10
79020;DHT22;68422;44.714;37.756;2023-03-14T00:38:44;23.16;39.89
79020;DHT22;68422;44.714;37.756;2023-03-14T00:39:46;23.22;39.93
79020;DHT22;68422;44.714;37.756;2023-03-14T00:40:47;23.20;40.12
79020;DHT22;68422;44.714;37.756;2023-03-14T00:41:48;23.25;39.83
79020;DHT22;68422;44.714;37.756;2023-03-14T00:42:49;23.23;39.93
79020;DHT22;68422;44.714;37.756;2023-03-14T00:43:51;23.26;39.84
79020;DHT22;68422;44.714;37.756;2023-03-14T00:44:54;23.26;40.08
79020;DHT22;68422;44.714;37.756;2023-03-14T00:45:55;23.26;39.99
79020;DHT22;68422;44.714;37.756;2023-03-14T00:47:01;23.29;39.48
79020;DHT22;68422;44.714;37.756;2023-03-14T00:48:03;23.30;39.54
79020;DHT22;68422;44.714;37.756;2023-03-14T00:49:04;23.35;39.59
79020;DHT22;68422;44.714;37.756;2023-03-14T00:50:06;23.35;39.48
79020;DHT22;68422;44.714;37.756;2023-03-14T00:51:08;23.35;39.63
79020;DHT22;68422;44.714;37.756;2023-03-14T00:52:10;23.42;39.48
79020;DHT22;68422;44.714;37.756;2023-03-14T00:53:11;23.43;39.44
79020;DHT22;68422;44.714;37.756;2023-03-14T00:54:12;23.46;39.25
79020;DHT22;68422;44.714;37.756;2023-03-14T00:55:14;23.43;39.41
79020;DHT22;68422;44.714;37.756;2023-03-14T00:56:15;23.39;39.36
79020;DHT22;68422;44.714;37.756;2023-03-14T00:57:17;23.35;39.58
79020;DHT22;68422;44.714;37.756;2023-03-14T00:58:18;23.35;39.52
79020;DHT22;68422;44.714;37.756;2023-03-14T00:59:19;23.33;39.58
79020;DHT22;68422;44.714;37.756;2023-03-14T01:00:21;23.32;39.60
79020;DHT22;68422;44.714;37.756;2023-03-14T01:01:23;23.36;38.95
79020;DHT22;68422;44.714;37.756;2023-03-14T01:02:25;23.36;39.29
79020;DHT22;68422;44.714;37.756;2023-03-14T01:03:26;23.38;39.72
79020;DHT22;68422;44.714;37.756;2023-03-14T01:04:28;23.39;39.19
79020;DHT22;68422;44.714;37.756;2023-03-14T01:05:31;23.42;38.95
79020;DHT22;68422;44.714;37.756;2023-03-14T01:06:32;23.39;39.19
79020;DHT22;68422;44.714;37.756;2023-03-14T01:07:34;23.41;39.25
79020;DHT22;68422;44.714;37.756;2023-03-14T01:08:35;23.41;39.33
79020;DHT22;68422;44.714;37.756;2023-03-14T01:09:36;23.46;39.08
79020;DHT22;68422;44.714;37.756;2023-03-14T01:10:40;23.45;38.96
79020;DHT22;68422;44.714;37.756;2023-03-14T01:11:41;23.45;39.21
79020;DHT22;68422;44.714;37.756;2023-03-14T01:12:44;23.49;39.00
79020;DHT22;68422;44.714;37.756;2023-03-14T01:13:45;23.50;38.97
79020;DHT22;68422;44.714;37.756;2023-03-14T01:14:46;23.50;38.72
79020;DHT22;68422;44.714;37.756;2023-03-14T01:15:47;23.50;38.95
79020;DHT22;68422;44.714;37.756;2023-03-14T01:16:49;23.49;38.99
79020;DHT22;68422;44.714;37.756;2023-03-14T01:17:50;23.48;39.03
79020;DHT22;68422;44.714;37.756;2023-03-14T01:18:52;23.49;38.94
79020;DHT22;68422;44.714;37.756;2023-03-14T01:19:53;23.52;38.92
79020;DHT22;68422;44.714;37.756;2023-03-14T01:20:55;23.52;38.79
79020;DHT22;68422;44.714;37.756;2023-03-14T01:21:56;23.52;38.63
79020;DHT22;68422;44.714;37.756;2023-03-14T01:22:58;23.50;39.01
79020;DHT22;68422;44.714;37.756;2023-03-14T01:24:01;23.48;38.65
79020;DHT22;68422;44.714;37.756;2023-03-14T01:25:04;23.45;38.76
79020;DHT22;68422;44.714;37.756;2023-03-14T01:26:08;23.48;38.39
79020;DHT22;68422;44.714;37.756;2023-03-14T01:27:10;23.43;38.35
79020;DHT22;68422;44.714;37.756;2023-03-14T01:28:12;23.41;38.80
79020;DHT22;68422;44.714;37.756;2023-03-14T01:29:13;23.45;38.88
79020;DHT22;68422;44.714;37.756;2023-03-14T01:30:15;23.41;38.93
79020;DHT22;68422;44.714;37.756;2023-03-14T01:31:17;23.42;38.85
79020;DHT22;68422;44.714;37.756;2023-03-14T01:32:19;23.43;38.94
79020;DHT22;68422;44.714;37.756;2023-03-14T01:33:26;23.48;39.02
79020;DHT22;68422;44.714;37.756;2023-03-14T01:34:28;23.53;38.88
79020;DHT22;68422;44.714;37.756;2023-03-14T01:35:29;23.56;38.82
79020;DHT22;68422;44.714;37.756;2023-03-14T01:36:31;23.59;38.69
79020;DHT22;68422;44.714;37.756;2023-03-14T01:37:35;23.60;38.85
79020;DHT22;68422;44.714;37.756;2023-03-14T01:38:38;23.63;38.65
79020;DHT22;68422;44.714;37.756;2023-03-14T01:39:42;23.62;38.52
79020;DHT22;68422;44.714;37.756;2023-03-14T01:40:44;23.59;38.64
79020;DHT22;68422;44.714;37.756;2023-03-14T01:41:45;23.57;38.95
79020;DHT22;68422;44.714;37.756;2023-03-14T01:42:57;23.49;39.06
79020;DHT22;68422;44.714;37.756;2023-03-14T01:44:09;23.48;39.03
79020;DHT22;68422;44.714;37.756;2023-03-14T01:46:49;23.49;38.77
79020;DHT22;68422;44.714;37.756;2023-03-14T01:47:51;23.45;38.71
79020;DHT22;68422;44.714;37.756;2023-03-14T01:49:13;23.45;38.71
79020;DHT22;68422;44.714;37.756;2023-03-14T01:50:17;23.45;38.88
79020;DHT22;68422;44.714;37.756;2023-03-14T01:51:32;23.38;39.15
79020;DHT22;68422;44.714;37.756;2023-03-14T01:52:39;23.32;39.14
79020;DHT22;68422;44.714;37.756;2023-03-14T01:53:44;23.32;39.02
79020;DHT22;68422;44.714;37.756;2023-03-14T01:54:53;23.26;38.97
79020;DHT22;68422;44.714;37.756;2023-03-14T01:55:55;23.29;38.91
79020;DHT22;68422;44.714;37.756;2023-03-14T01:58:13;23.20;39.23
79020;DHT22;68422;44.714;37.756;2023-03-14T01:59:16;23.23;38.91
79020;DHT22;68422;44.714;37.756;2023-03-14T02:00:20;23.32;38.88
79020;DHT22;68422;44.714;37.756;2023-03-14T02:01:24;23.32;38.85
79020;DHT22;68422;44.714;37.756;2023-03-14T02:02:27;23.30;38.78
79020;DHT22;68422;44.714;37.756;2023-03-14T02:03:30;23.30;38.68
79020;DHT22;68422;44.714;37.756;2023-03-14T02:04:36;23.36;38.63
79020;DHT22;68422;44.714;37.756;2023-03-14T02:05:39;23.41;38.61
79020;DHT22;68422;44.714;37.756;2023-03-14T02:07:09;23.39;38.71
79020;DHT22;68422;44.714;37.756;2023-03-14T02:08:18;23.36;38.71
79020;DHT22;68422;44.714;37.756;2023-03-14T02:09:26;23.33;38.63
79020;DHT22;68422;44.714;37.756;2023-03-14T02:10:34;23.39;38.53
79020;DHT22;68422;44.714;37.756;2023-03-14T02:11:38;23.38;38.45
79020;DHT22;68422;44.714;37.756;2023-03-14T02:12:52;23.36;38.65
79020;DHT22;68422;44.714;37.756;2023-03-14T02:14:07;23.42;38.35
79020;DHT22;68422;44.714;37.756;2023-03-14T02:15:39;23.43;38.38
79020;DHT22;68422;44.714;37.756;2023-03-14T02:16:48;23.43;38.38
79020;DHT22;68422;44.714;37.756;2023-03-14T02:18:21;23.41;38.31
79020;DHT22;68422;44.714;37.756;2023-03-14T02:21:42;23.29;38.59
79020;DHT22;68422;44.714;37.756;2023-03-14T02:22:46;23.32;38.49
79020;DHT22;68422;44.714;37.756;2023-03-14T02:24:11;23.30;38.50
79020;DHT22;68422;44.714;37.756;2023-03-14T02:27:11;23.23;38.77
79020;DHT22;68422;44.714;37.756;2023-03-14T02:28:17;23.25;38.53
79020;DHT22;68422;44.714;37.756;2023-03-14T02:29:22;23.25;38.45
79020;DHT22;68422;44.714;37.756;2023-03-14T02:30:26;23.26;38.55
79020;DHT22;68422;44.714;37.756;2023-03-14T02:31:28;23.29;38.57
79020;DHT22;68422;44.714;37.756;2023-03-14T02:32:31;23.32;38.43
79020;DHT22;68422;44.714;37.756;2023-03-14T02:33:32;23.29;38.44
79020;DHT22;68422;44.714;37.756;2023-03-14T02:34:34;23.32;38.43
79020;DHT22;68422;44.714;37.756;2023-03-14T02:36:50;23.28;38.42
79020;DHT22;68422;44.714;37.756;2023-03-14T02:37:59;23.20;38.31
79020;DHT22;68422;44.714;37.756;2023-03-14T02:39:24;23.26;38.30
79020;DHT22;68422;44.714;37.756;2023-03-14T02:40:27;23.30;38.19
79020;DHT22;68422;44.714;37.756;2023-03-14T02:41:29;23.29;38.39
79020;DHT22;68422;44.714;37.756;2023-03-14T02:42:37;23.30;38.18
79020;DHT22;68422;44.714;37.756;2023-03-14T02:43:38;23.33;38.40
79020;DHT22;68422;44.714;37.756;2023-03-14T02:46:21;23.33;38.27
79020;DHT22;68422;44.714;37.756;2023-03-14T02:47:27;23.35;38.20
79020;DHT22;68422;44.714;37.756;2023-03-14T02:48:35;23.33;38.05
79020;DHT22;68422;44.714;37.756;2023-03-14T02:49:38;23.38;38.08
79020;DHT22;68422;44.714;37.756;2023-03-14T02:50:39;23.38;38.05
79020;DHT22;68422;44.714;37.756;2023-03-14T02:51:41;23.41;37.84
79020;DHT22;68422;44.714;37.756;2023-03-14T02:52:44;23.42;37.91
79020;DHT22;68422;44.714;37.756;2023-03-14T02:53:45;23.36;37.99
79020;DHT22;68422;44.714;37.756;2023-03-14T02:54:47;23.33;38.12
79020;DHT22;68422;44.714;37.756;2023-03-14T02:55:49;23.33;38.08
79020;DHT22;68422;44.714;37.756;2023-03-14T02:56:52;23.29;37.92
79020;DHT22;68422;44.714;37.756;2023-03-14T02:57:53;23.32;38.06
79020;DHT22;68422;44.714;37.756;2023-03-14T02:58:55;23.26;38.24
79020;DHT22;68422;44.714;37.756;2023-03-14T03:00:09;23.25;37.96
79020;DHT22;68422;44.714;37.756;2023-03-14T03:01:12;23.30;37.59
79020;DHT22;68422;44.714;37.756;2023-03-14T03:02:14;23.26;37.98
79020;DHT22;68422;44.714;37.756;2023-03-14T03:03:15;23.22;38.15
79020;DHT22;68422;44.714;37.756;2023-03-14T03:04:17;23.28;38.10
79020;DHT22;68422;44.714;37.756;2023-03-14T03:05:20;23.26;37.89
79020;DHT22;68422;44.714;37.756;2023-03-14T03:06:22;23.30;37.83
79020;DHT22;68422;44.714;37.756;2023-03-14T03:07:23;23.30;38.09
79020;DHT22;68422;44.714;37.756;2023-03-14T03:08:26;23.25;38.10
79020;DHT22;68422;44.714;37.756;2023-03-14T03:09:28;23.26;38.05
79020;DHT22;68422;44.714;37.756;2023-03-14T03:10:30;23.26;38.13
79020;DHT22;68422;44.714;37.756;2023-03-14T03:11:32;23.20;38.17
79020;DHT22;68422;44.714;37.756;2023-03-14T03:12:34;23.23;38.04
79020;DHT22;68422;44.714;37.756;2023-03-14T03:13:35;23.25;38.14
79020;DHT22;68422;44.714;37.756;2023-03-14T03:14:38;23.28;37.96
79020;DHT22;68422;44.714;37.756;2023-03-14T03:15:40;23.28;38.24
79020;DHT22;68422;44.714;37.756;2023-03-14T03:16:41;23.29;37.82
79020;DHT22;68422;44.714;37.756;2023-03-14T03:17:43;23.29;37.86
79020;DHT22;68422;44.714;37.756;2023-03-14T03:18:44;23.25;38.11
79020;DHT22;68422;44.714;37.756;2023-03-14T03:19:45;23.25;37.96
79020;DHT22;68422;44.714;37.756;2023-03-14T03:20:46;23.28;37.84
79020;DHT22;68422;44.714;37.756;2023-03-14T03:21:48;23.30;37.64
79020;DHT22;68422;44.714;37.756;2023-03-14T03:22:49;23.26;37.90
79020;DHT22;68422;44.714;37.756;2023-03-14T03:23:51;23.23;38.06
79020;DHT22;68422;44.714;37.756;2023-03-14T03:24:52;23.22;37.83
79020;DHT22;68422;44.714;37.756;2023-03-14T03:25:53;23.20;37.92
79020;DHT22;68422;44.714;37.756;2023-03-14T03:26:55;23.20;37.92
79020;DHT22;68422;44.714;37.756;2023-03-14T03:27:57;23.20;37.95
79020;DHT22;68422;44.714;37.756;2023-03-14T03:28:58;23.22;37.73
79020;DHT22;68422;44.714;37.756;2023-03-14T03:30:00;23.20;37.80
79020;DHT22;68422;44.714;37.756;2023-03-14T03:31:11;23.16;38.12
79020;DHT22;68422;44.714;37.756;2023-03-14T03:32:13;23.16;38.06
79020;DHT22;68422;44.714;37.756;2023-03-14T03:33:15;23.15;38.05
79020;DHT22;68422;44.714;37.756;2023-03-14T03:34:19;23.16;37.94
79020;DHT22;68422;44.714;37.756;2023-03-14T03:35:23;23.22;37.90
79020;DHT22;68422;44.714;37.756;2023-03-14T03:36:26;23.19;37.77
79020;DHT22;68422;44.714;37.756;2023-03-14T03:37:27;23.20;37.84
79020;DHT22;68422;44.714;37.756;2023-03-14T03:38:29;23.20;37.79
79020;DHT22;68422;44.714;37.756;2023-03-14T03:39:32;23.23;37.86
79020;DHT22;68422;44.714;37.756;2023-03-14T03:40:33;23.19;37.82
79020;DHT22;68422;44.714;37.756;2023-03-14T03:41:35;23.19;37.92
79020;DHT22;68422;44.714;37.756;2023-03-14T03:42:36;23.16;37.93
79020;DHT22;68422;44.714;37.756;2023-03-14T03:43:41;23.19;37.89
79020;DHT22;68422;44.714;37.756;2023-03-14T03:44:44;23.18;37.88
79020;DHT22;68422;44.714;37.756;2023-03-14T03:45:46;23.22;37.78
79020;DHT22;68422;44.714;37.756;2023-03-14T03:46:47;23.19;37.55
79020;DHT22;68422;44.714;37.756;2023-03-14T03:47:48;23.16;37.57
79020;DHT22;68422;44.714;37.756;2023-03-14T03:48:57;23.15;37.81
79020;DHT22;68422;44.714;37.756;2023-03-14T03:50:00;23.08;38.03
79020;DHT22;68422;44.714;37.756;2023-03-14T03:51:02;23.02;38.21
79020;DHT22;68422;44.714;37.756;2023-03-14T03:52:04;22.98;38.49
79020;DHT22;68422;44.714;37.756;2023-03-14T03:53:05;22.95;38.69
79020;DHT22;68422;44.714;37.756;2023-03-14T03:54:07;22.98;38.49
79020;DHT22;68422;44.714;37.756;2023-03-14T03:55:08;23.09;37.86
79020;DHT22;68422;44.714;37.756;2023-03-14T03:56:10;23.14;37.71
79020;DHT22;68422;44.714;37.756;2023-03-14T03:57:12;23.23;37.51
79020;DHT22;68422;44.714;37.756;2023-03-14T03:58:13;23.23;37.87
79020;DHT22;68422;44.714;37.756;2023-03-14T03:59:15;23.22;37.53
79020;DHT22;68422;44.714;37.756;2023-03-14T04:00:16;23.22;37.71
79020;DHT22;68422;44.714;37.756;2023-03-14T04:01:18;23.23;37.73
79020;DHT22;68422;44.714;37.756;2023-03-14T04:02:23;23.22;37.62
79020;DHT22;68422;44.714;37.756;2023-03-14T04:03:26;23.23;37.19
79020;DHT22;68422;44.714;37.756;2023-03-14T04:04:28;23.25;37.39
79020;DHT22;68422;44.714;37.756;2023-03-14T04:05:30;23.26;37.33
79020;DHT22;68422;44.714;37.756;2023-03-14T04:06:37;23.25;37.32
79020;DHT22;68422;44.714;37.756;2023-03-14T04:07:38;23.29;37.06
79020;DHT22;68422;44.714;37.756;2023-03-14T04:08:41;23.26;37.24
79020;DHT22;68422;44.714;37.756;2023-03-14T04:09:45;23.19;37.37
79020;DHT22;68422;44.714;37.756;2023-03-14T04:10:58;23.18;37.31
79020;DHT22;68422;44.714;37.756;2023-03-14T04:12:26;23.02;37.94
79020;DHT22;68422;44.714;37.756;2023-03-14T04:13:39;22.97;38.27
79020;DHT22;68422;44.714;37.756;2023-03-14T04:14:40;22.95;38.35
79020;DHT22;68422;44.714;37.756;2023-03-14T04:15:55;22.98;38.26
79020;DHT22;68422;44.714;37.756;2023-03-14T04:17:00;23.01;38.34
79020;DHT22;68422;44.714;37.756;2023-03-14T04:18:01;23.04;37.88
79020;DHT22;68422;44.714;37.756;2023-03-14T04:19:03;23.02;37.99
79020;DHT22;68422;44.714;37.756;2023-03-14T04:20:07;23.01;37.90
79020;DHT22;68422;44.714;37.756;2023-03-14T04:21:12;23.02;37.90
79020;DHT22;68422;44.714;37.756;2023-03-14T04:22:23;23.05;38.31
79020;DHT22;68422;44.714;37.756;2023-03-14T04:23:26;23.09;38.18
79020;DHT22;68422;44.714;37.756;2023-03-14T04:24:27;23.19;38.45
79020;DHT22;68422;44.714;37.756;2023-03-14T04:25:31;23.25;38.10
79020;DHT22;68422;44.714;37.756;2023-03-14T04:26:35;23.25;38.20
79020;DHT22;68422;44.714;37.756;2023-03-14T04:27:36;23.20;37.98
79020;DHT22;68422;44.714;37.756;2023-03-14T04:28:41;23.14;37.99
79020;DHT22;68422;44.714;37.756;2023-03-14T04:29:44;23.11;37.99
79020;DHT22;68422;44.714;37.756;2023-03-14T04:30:49;23.07;38.07
79020;DHT22;68422;44.714;37.756;2023-03-14T04:31:55;22.99;38.28
79020;DHT22;68422;44.714;37.756;2023-03-14T04:32:57;23.04;38.32
79020;DHT22;68422;44.714;37.756;2023-03-14T04:34:00;23.02;38.24
79020;DHT22;68422;44.714;37.756;2023-03-14T04:35:15;23.02;38.22
79020;DHT22;68422;44.714;37.756;2023-03-14T04:36:17;22.99;38.38
79020;DHT22;68422;44.714;37.756;2023-03-14T04:37:19;23.04;38.57
79020;DHT22;68422;44.714;37.756;2023-03-14T04:38:21;23.11;38.25
79020;DHT22;68422;44.714;37.756;2023-03-14T04:39:23;23.18;38.13
79020;DHT22;68422;44.714;37.756;2023-03-14T04:40:31;23.18;38.10
79020;DHT22;68422;44.714;37.756;2023-03-14T04:41:36;23.16;38.42
79020;DHT22;68422;44.714;37.756;2023-03-14T04:42:38;23.18;38.18
79020;DHT22;68422;44.714;37.756;2023-03-14T04:43:40;23.12;38.24
79020;DHT22;68422;44.714;37.756;2023-03-14T04:44:43;23.12;38.29
79020;DHT22;68422;44.714;37.756;2023-03-14T04:45:46;23.09;38.29
79020;DHT22;68422;44.714;37.756;2023-03-14T04:46:47;23.09;38.34
79020;DHT22;68422;44.714;37.756;2023-03-14T04:47:49;23.14;38.45
79020;DHT22;68422;44.714;37.756;2023-03-14T04:48:53;23.14;38.56
79020;DHT22;68422;44.714;37.756;2023-03-14T04:49:54;23.15;38.59
79020;DHT22;68422;44.714;37.756;2023-03-14T04:50:58;23.20;38.41
79020;DHT22;68422;44.714;37.756;2023-03-14T04:52:00;23.22;38.38
79020;DHT22;68422;44.714;37.756;2023-03-14T04:53:04;23.20;38.41
79020;DHT22;68422;44.714;37.756;2023-03-14T04:54:05;23.19;38.44
79020;DHT22;68422;44.714;37.756;2023-03-14T04:55:07;23.18;38.32
79020;DHT22;68422;44.714;37.756;2023-03-14T04:56:08;23.16;38.39
79020;DHT22;68422;44.714;37.756;2023-03-14T04:57:12;23.09;38.47
79020;DHT22;68422;44.714;37.756;2023-03-14T04:58:14;23.18;38.36
79020;DHT22;68422;44.714;37.756;2023-03-14T04:59:17;23.25;38.24
79020;DHT22;68422;44.714;37.756;2023-03-14T05:00:18;23.20;38.31
79020;DHT22;68422;44.714;37.756;2023-03-14T05:01:38;23.20;38.44
79020;DHT22;68422;44.714;37.756;2023-03-14T05:02:55;23.22;38.35
79020;DHT22;68422;44.714;37.756;2023-03-14T05:04:15;23.25;38.09
79020;DHT22;68422;44.714;37.756;2023-03-14T05:05:55;23.22;38.34
79020;DHT22;68422;44.714;37.756;2023-03-14T05:07:16;23.18;38.28
79020;DHT22;68422;44.714;37.756;2023-03-14T05:08:29;23.18;38.36
79020;DHT22;68422;44.714;37.756;2023-03-14T05:09:53;23.18;38.37
79020;DHT22;68422;44.714;37.756;2023-03-14T05:11:13;23.18;38.33
79020;DHT22;68422;44.714;37.756;2023-03-14T05:12:29;23.22;38.26
79020;DHT22;68422;44.714;37.756;2023-03-14T05:13:56;23.29;38.13
79020;DHT22;68422;44.714;37.756;2023-03-14T05:15:21;23.29;38.12
79020;DHT22;68422;44.714;37.756;2023-03-14T05:16:36;23.30;38.05
79020;DHT22;68422;44.714;37.756;2023-03-14T05:17:57;23.26;38.10
79020;DHT22;68422;44.714;37.756;2023-03-14T05:19:25;23.28;38.19
79020;DHT22;68422;44.714;37.756;2023-03-14T05:20:50;23.26;38.24
79020;DHT22;68422;44.714;37.756;2023-03-14T05:22:12;23.28;38.28
79020;DHT22;68422;44.714;37.756;2023-03-14T05:23:27;23.28;38.16
79020;DHT22;68422;44.714;37.756;2023-03-14T05:24:45;23.29;38.21
79020;DHT22;68422;44.714;37.756;2023-03-14T05:25:57;23.35;38.05
79020;DHT22;68422;44.714;37.756;2023-03-14T05:27:27;23.26;38.12
79020;DHT22;68422;44.714;37.756;2023-03-14T05:28:37;23.29;38.18
79020;DHT22;68422;44.714;37.756;2023-03-14T05:29:57;23.30;37.98
79020;DHT22;68422;44.714;37.756;2023-03-14T05:31:17;23.25;38.23
79020;DHT22;68422;44.714;37.756;2023-03-14T05:32:24;23.20;38.24
79020;DHT22;68422;44.714;37.756;2023-03-14T05:33:43;23.15;38.22
79020;DHT22;68422;44.714;37.756;2023-03-14T05:34:59;23.18;38.36
79020;DHT22;68422;44.714;37.756;2023-03-14T05:36:33;23.22;38.22
79020;DHT22;68422;44.714;37.756;2023-03-14T05:37:55;23.19;38.24
79020;DHT22;68422;44.714;37.756;2023-03-14T05:39:02;23.15;38.35
79020;DHT22;68422;44.714;37.756;2023-03-14T05:40:12;23.11;38.23
79020;DHT22;68422;44.714;37.756;2023-03-14T05:41:36;23.16;38.32
79020;DHT22;68422;44.714;37.756;2023-03-14T05:42:50;23.14;38.24
79020;DHT22;68422;44.714;37.756;2023-03-14T05:44:07;23.14;38.33
79020;DHT22;68422;44.714;37.756;2023-03-14T05:45:19;23.09;38.43
79020;DHT22;68422;44.714;37.756;2023-03-14T05:46:39;23.05;38.51
79020;DHT22;68422;44.714;37.756;2023-03-14T05:48:01;23.11;38.42
79020;DHT22;68422;44.714;37.756;2023-03-14T05:49:25;23.15;38.21
79020;DHT22;68422;44.714;37.756;2023-03-14T05:50:45;23.18;38.12
79020;DHT22;68422;44.714;37.756;2023-03-14T05:52:25;23.19;38.11
79020;DHT22;68422;44.714;37.756;2023-03-14T05:53:55;23.20;38.07
79020;DHT22;68422;44.714;37.756;2023-03-14T05:55:15;23.19;38.17
79020;DHT22;68422;44.714;37.756;2023-03-14T05:56:17;23.19;38.10
79020;DHT22;68422;44.714;37.756;2023-03-14T05:57:39;23.12;38.32
79020;DHT22;68422;44.714;37.756;2023-03-14T05:58:55;23.09;38.30
79020;DHT22;68422;44.714;37.756;2023-03-14T06:00:23;23.09;38.39
79020;DHT22;68422;44.714;37.756;2023-03-14T06:01:36;23.15;38.28
79020;DHT22;68422;44.714;37.756;2023-03-14T06:02:45;23.09;38.45
79020;DHT22;68422;44.714;37.756;2023-03-14T06:03:56;23.12;38.62
79020;DHT22;68422;44.714;37.756;2023-03-14T06:04:57;23.12;38.37
79020;DHT22;68422;44.714;37.756;2023-03-14T06:05:59;23.15;38.30
79020;DHT22;68422;44.714;37.756;2023-03-14T06:07:00;23.15;38.64
79020;DHT22;68422;44.714;37.756;2023-03-14T06:08:02;23.16;38.41
79020;DHT22;68422;44.714;37.756;2023-03-14T06:09:06;23.20;38.15
79020;DHT22;68422;44.714;37.756;2023-03-14T06:10:10;23.22;38.18
79020;DHT22;68422;44.714;37.756;2023-03-14T06:11:12;23.23;38.20
79020;DHT22;68422;44.714;37.756;2023-03-14T06:12:15;23.22;38.15
79020;DHT22;68422;44.714;37.756;2023-03-14T06:13:18;23.28;37.95
79020;DHT22;68422;44.714;37.756;2023-03-14T06:14:20;23.25;37.88
79020;DHT22;68422;44.714;37.756;2023-03-14T06:15:23;23.32;37.93
79020;DHT22;68422;44.714;37.756;2023-03-14T06:16:27;23.33;37.86
79020;DHT22;68422;44.714;37.756;2023-03-14T06:17:29;23.30;37.89
79020;DHT22;68422;44.714;37.756;2023-03-14T06:18:37;23.33;37.82
79020;DHT22;68422;44.714;37.756;2023-03-14T06:19:41;23.30;37.89
79020;DHT22;68422;44.714;37.756;2023-03-14T06:20:44;23.33;37.77
79020;DHT22;68422;44.714;37.756;2023-03-14T06:21:50;23.30;37.81
79020;DHT22;68422;44.714;37.756;2023-03-14T06:22:51;23.26;37.74
79020;DHT22;68422;44.714;37.756;2023-03-14T06:23:53;23.28;37.76
79020;DHT22;68422;44.714;37.756;2023-03-14T06:24:55;23.32;37.66
79020;DHT22;68422;44.714;37.756;2023-03-14T06:25:58;23.29;37.83
79020;DHT22;68422;44.714;37.756;2023-03-14T06:27:00;23.32;37.81
79020;DHT22;68422;44.714;37.756;2023-03-14T06:28:04;23.28;37.81
79020;DHT22;68422;44.714;37.756;2023-03-14T06:29:06;23.26;37.86
79020;DHT22;68422;44.714;37.756;2023-03-14T06:30:09;23.29;37.81
79020;DHT22;68422;44.714;37.756;2023-03-14T06:31:11;23.28;37.85
79020;DHT22;68422;44.714;37.756;2023-03-14T06:32:22;23.25;37.91
79020;DHT22;68422;44.714;37.756;2023-03-14T06:33:26;23.20;38.01
79020;DHT22;68422;44.714;37.756;2023-03-14T06:34:28;23.23;38.01
79020;DHT22;68422;44.714;37.756;2023-03-14T06:35:29;23.23;37.93
79020;DHT22;68422;44.714;37.756;2023-03-14T06:36:31;23.23;37.86
79020;DHT22;68422;44.714;37.756;2023-03-14T06:37:33;23.20;37.86
79020;DHT22;68422;44.714;37.756;2023-03-14T06:38:35;23.16;37.97
79020;DHT22;68422;44.714;37.756;2023-03-14T06:39:36;23.14;37.94
79020;DHT22;68422;44.714;37.756;2023-03-14T06:40:46;23.14;37.92
79020;DHT22;68422;44.714;37.756;2023-03-14T06:41:51;23.12;38.03
79020;DHT22;68422;44.714;37.756;2023-03-14T06:42:54;23.16;37.91
79020;DHT22;68422;44.714;37.756;2023-03-14T06:43:57;23.19;37.90
79020;DHT22;68422;44.714;37.756;2023-03-14T06:44:58;23.16;37.92
79020;DHT22;68422;44.714;37.756;2023-03-14T06:46:01;23.18;37.92
79020;DHT22;68422;44.714;37.756;2023-03-14T06:47:02;23.18;37.88
79020;DHT22;68422;44.714;37.756;2023-03-14T06:48:04;23.18;37.92
79020;DHT22;68422;44.714;37.756;2023-03-14T06:49:26;23.19;37.81
79020;DHT22;68422;44.714;37.756;2023-03-14T06:50:29;23.20;37.80
79020;DHT22;68422;44.714;37.756;2023-03-14T06:51:33;23.20;37.79
79020;DHT22;68422;44.714;37.756;2023-03-14T06:52:37;23.20;37.84
79020;DHT22;68422;44.714;37.756;2023-03-14T06:53:42;23.19;37.79
79020;DHT22;68422;44.714;37.756;2023-03-14T06:54:43;23.18;37.81
79020;DHT22;68422;44.714;37.756;2023-03-14T06:55:44;23.20;37.81
79020;DHT22;68422;44.714;37.756;2023-03-14T06:56:48;23.16;38.03
79020;DHT22;68422;44.714;37.756;2023-03-14T06:57:49;23.16;37.79